sensor_id;sensor_type;location;lat;lon;timestamp;temperature;humidity
45115;DHT22;30877;43.706;10.780;2023-04-24T00:00:27;17.60;96.70
45115;DHT22;30877;43.706;10.780;2023-04-24T00:02:55;17.50;96.70
45115;DHT22;30877;43.706;10.780;2023-04-24T00:05:25;17.60;96.70
45115;DHT22;30877;43.706;10.780;2023-04-24T00:07:53;17.70;96.70
45115;DHT22;30877;43.706;10.780;2023-04-24T00:10:23;17.70;96.70
45115;DHT22;30877;43.706;10.780;2023-04-24T00:12:51;17.70;96.70
45115;DHT22;30877;43.706;10.780;2023-04-24T00:15:18;17.60;96.70
45115;DHT22;30877;43.706;10.780;2023-04-24T00:17:46;17.60;96.70
45115;DHT22;30877;43.706;10.780;2023-04-24T00:20:15;17.50;96.70
45115;DHT22;30877;43.706;10.780;2023-04-24T00:22:43;17.50;96.70
45115;DHT22;30877;43.706;10.780;2023-04-24T00:25:11;17.50;96.70
45115;DHT22;30877;43.706;10.780;2023-04-24T00:27:41;17.50;96.70
45115;DHT22;30877;43.706;10.780;2023-04-24T00:30:10;17.50;96.70
45115;DHT22;30877;43.706;10.780;2023-04-24T00:32:38;17.50;96.70
45115;DHT22;30877;43.706;10.780;2023-04-24T00:35:07;17.50;96.70
45115;DHT22;30877;43.706;10.780;2023-04-24T00:37:36;17.40;96.70
45115;DHT22;30877;43.706;10.780;2023-04-24T00:40:06;17.40;96.70
45115;DHT22;30877;43.706;10.780;2023-04-24T00:42:35;17.50;96.70
45115;DHT22;30877;43.706;10.780;2023-04-24T00:45:17;17.50;96.70
45115;DHT22;30877;43.706;10.780;2023-04-24T00:47:45;17.50;96.70
45115;DHT22;30877;43.706;10.780;2023-04-24T00:50:15;17.50;96.70
45115;DHT22;30877;43.706;10.780;2023-04-24T00:52:43;17.50;96.70
45115;DHT22;30877;43.706;10.780;2023-04-24T00:55:11;17.50;96.70
45115;DHT22;30877;43.706;10.780;2023-04-24T00:57:39;17.50;96.70
45115;DHT22;30877;43.706;10.780;2023-04-24T01:00:10;17.50;96.70
45115;DHT22;30877;43.706;10.780;2023-04-24T01:02:40;17.50;96.70
45115;DHT22;30877;43.706;10.780;2023-04-24T01:05:12;17.50;96.70
45115;DHT22;30877;43.706;10.780;2023-04-24T01:07:41;17.50;96.70
45115;DHT22;30877;43.706;10.780;2023-04-24T01:10:11;17.50;96.70
45115;DHT22;30877;43.706;10.780;2023-04-24T01:12:40;17.50;96.70
45115;DHT22;30877;43.706;10.780;2023-04-24T01:15:10;17.50;96.70
45115;DHT22;30877;43.706;10.780;2023-04-24T01:17:38;17.60;96.70
45115;DHT22;30877;43.706;10.780;2023-04-24T01:20:07;17.60;96.70
45115;DHT22;30877;43.706;10.780;2023-04-24T01:22:37;17.60;96.70
45115;DHT22;30877;43.706;10.780;2023-04-24T01:25:06;17.60;96.70
45115;DHT22;30877;43.706;10.780;2023-04-24T01:27:34;17.40;96.70
45115;DHT22;30877;43.706;10.780;2023-04-24T01:30:03;17.40;96.70
45115;DHT22;30877;43.706;10.780;2023-04-24T01:32:31;17.30;96.70
45115;DHT22;30877;43.706;10.780;2023-04-24T01:34:59;17.10;96.70
45115;DHT22;30877;43.706;10.780;2023-04-24T01:37:27;17.10;96.70
45115;DHT22;30877;43.706;10.780;2023-04-24T01:39:57;17.00;96.70
45115;DHT22;30877;43.706;10.780;2023-04-24T01:42:26;17.10;96.70
45115;DHT22;30877;43.706;10.780;2023-04-24T01:44:54;17.10;96.70
45115;DHT22;30877;43.706;10.780;2023-04-24T01:47:24;17.10;96.70
45115;DHT22;30877;43.706;10.780;2023-04-24T01:49:51;17.00;96.70
45115;DHT22;30877;43.706;10.780;2023-04-24T01:52:20;17.00;96.70
45115;DHT22;30877;43.706;10.780;2023-04-24T01:54:47;17.20;96.70
45115;DHT22;30877;43.706;10.780;2023-04-24T01:57:18;17.20;96.70
45115;DHT22;30877;43.706;10.780;2023-04-24T01:59:46;17.20;96.70
45115;DHT22;30877;43.706;10.780;2023-04-24T02:02:14;17.30;96.70
45115;DHT22;30877;43.706;10.780;2023-04-24T02:04:42;17.20;96.70
45115;DHT22;30877;43.706;10.780;2023-04-24T02:07:10;17.10;96.70
45115;DHT22;30877;43.706;10.780;2023-04-24T02:09:38;17.00;96.70
45115;DHT22;30877;43.706;10.780;2023-04-24T02:12:06;17.00;96.70
45115;DHT22;30877;43.706;10.780;2023-04-24T02:14:36;17.00;96.70
45115;DHT22;30877;43.706;10.780;2023-04-24T02:17:04;17.10;96.70
45115;DHT22;30877;43.706;10.780;2023-04-24T02:19:32;17.10;96.70
45115;DHT22;30877;43.706;10.780;2023-04-24T02:22:00;17.00;96.70
45115;DHT22;30877;43.706;10.780;2023-04-24T02:24:28;17.00;96.70
45115;DHT22;30877;43.706;10.780;2023-04-24T02:26:56;16.90;96.70
45115;DHT22;30877;43.706;10.780;2023-04-24T02:29:26;16.80;96.70
45115;DHT22;30877;43.706;10.780;2023-04-24T02:31:55;16.80;96.70
45115;DHT22;30877;43.706;10.780;2023-04-24T02:34:24;16.80;96.70
45115;DHT22;30877;43.706;10.780;2023-04-24T02:36:52;16.90;96.70
45115;DHT22;30877;43.706;10.780;2023-04-24T02:39:21;17.00;96.70
45115;DHT22;30877;43.706;10.780;2023-04-24T02:41:49;17.00;96.70
45115;DHT22;30877;43.706;10.780;2023-04-24T02:44:17;16.90;96.70
45115;DHT22;30877;43.706;10.780;2023-04-24T02:46:45;16.80;96.70
45115;DHT22;30877;43.706;10.780;2023-04-24T02:49:15;16.80;96.70
45115;DHT22;30877;43.706;10.780;2023-04-24T02:51:43;17.00;96.70
45115;DHT22;30877;43.706;10.780;2023-04-24T02:54:11;17.10;96.70
45115;DHT22;30877;43.706;10.780;2023-04-24T02:56:39;17.10;96.70
45115;DHT22;30877;43.706;10.780;2023-04-24T02:59:08;17.20;96.70
45115;DHT22;30877;43.706;10.780;2023-04-24T03:01:36;17.20;96.70
45115;DHT22;30877;43.706;10.780;2023-04-24T03:04:05;17.20;96.70
45115;DHT22;30877;43.706;10.780;2023-04-24T03:06:34;17.20;96.70
45115;DHT22;30877;43.706;10.780;2023-04-24T03:09:03;17.30;96.70
45115;DHT22;30877;43.706;10.780;2023-04-24T03:11:31;17.30;96.70
45115;DHT22;30877;43.706;10.780;2023-04-24T03:14:00;17.20;96.70
45115;DHT22;30877;43.706;10.780;2023-04-24T03:16:28;17.20;96.70
45115;DHT22;30877;43.706;10.780;2023-04-24T03:18:56;17.10;96.70
45115;DHT22;30877;43.706;10.780;2023-04-24T03:21:27;17.00;96.70
45115;DHT22;30877;43.706;10.780;2023-04-24T03:23:56;16.90;96.70
45115;DHT22;30877;43.706;10.780;2023-04-24T03:26:24;16.90;96.70
45115;DHT22;30877;43.706;10.780;2023-04-24T03:29:15;16.80;96.70
45115;DHT22;30877;43.706;10.780;2023-04-24T03:31:43;16.80;96.70
45115;DHT22;30877;43.706;10.780;2023-04-24T03:34:12;16.80;96.70
45115;DHT22;30877;43.706;10.780;2023-04-24T03:36:40;16.70;96.70
45115;DHT22;30877;43.706;10.780;2023-04-24T03:39:10;16.70;96.70
45115;DHT22;30877;43.706;10.780;2023-04-24T03:41:45;16.60;96.70
45115;DHT22;30877;43.706;10.780;2023-04-24T03:44:17;16.70;96.70
45115;DHT22;30877;43.706;10.780;2023-04-24T03:46:45;16.80;96.70
45115;DHT22;30877;43.706;10.780;2023-04-24T03:49:15;16.70;96.70
45115;DHT22;30877;43.706;10.780;2023-04-24T03:51:45;16.70;96.70
45115;DHT22;30877;43.706;10.780;2023-04-24T03:54:26;16.60;96.70
45115;DHT22;30877;43.706;10.780;2023-04-24T03:56:54;16.50;96.70
45115;DHT22;30877;43.706;10.780;2023-04-24T03:59:25;16.60;96.70
45115;DHT22;30877;43.706;10.780;2023-04-24T04:02:13;16.60;96.70
45115;DHT22;30877;43.706;10.780;2023-04-24T04:04:41;16.70;96.70
45115;DHT22;30877;43.706;10.780;2023-04-24T04:07:34;16.70;96.70
45115;DHT22;30877;43.706;10.780;2023-04-24T04:10:04;16.70;96.70
45115;DHT22;30877;43.706;10.780;2023-04-24T04:12:32;16.60;96.70
45115;DHT22;30877;43.706;10.780;2023-04-24T04:15:00;16.70;96.70
45115;DHT22;30877;43.706;10.780;2023-04-24T04:17:28;16.70;96.70
45115;DHT22;30877;43.706;10.780;2023-04-24T04:19:57;16.70;96.70
45115;DHT22;30877;43.706;10.780;2023-04-24T04:22:25;16.70;96.70
45115;DHT22;30877;43.706;10.780;2023-04-24T04:24:53;16.50;96.70
45115;DHT22;30877;43.706;10.780;2023-04-24T04:27:25;16.30;96.70
45115;DHT22;30877;43.706;10.780;2023-04-24T04:30:01;16.10;96.70
45115;DHT22;30877;43.706;10.780;2023-04-24T04:32:40;16.10;96.70
45115;DHT22;30877;43.706;10.780;2023-04-24T04:35:09;16.00;96.70
45115;DHT22;30877;43.706;10.780;2023-04-24T04:37:37;16.00;96.70
45115;DHT22;30877;43.706;10.780;2023-04-24T04:40:14;15.90;96.70
45115;DHT22;30877;43.706;10.780;2023-04-24T04:42:53;15.80;96.70
45115;DHT22;30877;43.706;10.780;2023-04-24T04:45:22;15.80;96.70
45115;DHT22;30877;43.706;10.780;2023-04-24T04:48:11;15.80;96.70
45115;DHT22;30877;43.706;10.780;2023-04-24T04:50:41;15.70;96.70
45115;DHT22;30877;43.706;10.780;2023-04-24T04:53:10;15.70;96.70
45115;DHT22;30877;43.706;10.780;2023-04-24T04:55:38;15.70;96.70
45115;DHT22;30877;43.706;10.780;2023-04-24T04:58:19;15.70;96.70
45115;DHT22;30877;43.706;10.780;2023-04-24T05:00:51;15.70;96.70
45115;DHT22;30877;43.706;10.780;2023-04-24T05:03:30;15.70;96.70
45115;DHT22;30877;43.706;10.780;2023-04-24T05:06:10;15.70;96.70
45115;DHT22;30877;43.706;10.780;2023-04-24T05:08:39;15.70;96.70
45115;DHT22;30877;43.706;10.780;2023-04-24T05:11:18;15.80;96.70
45115;DHT22;30877;43.706;10.780;2023-04-24T05:13:48;15.80;96.70
45115;DHT22;30877;43.706;10.780;2023-04-24T05:16:23;15.80;96.70
45115;DHT22;30877;43.706;10.780;2023-04-24T05:18:53;15.90;96.70
45115;DHT22;30877;43.706;10.780;2023-04-24T05:21:27;15.90;96.70
45115;DHT22;30877;43.706;10.780;2023-04-24T05:23:55;15.90;96.70
45115;DHT22;30877;43.706;10.780;2023-04-24T05:26:46;15.90;96.70
45115;DHT22;30877;43.706;10.780;2023-04-24T05:29:19;15.90;96.70
45115;DHT22;30877;43.706;10.780;2023-04-24T05:31:47;15.90;96.70
45115;DHT22;30877;43.706;10.780;2023-04-24T05:34:16;15.90;96.70
45115;DHT22;30877;43.706;10.780;2023-04-24T05:36:47;15.90;96.70
45115;DHT22;30877;43.706;10.780;2023-04-24T05:39:15;15.90;96.70
45115;DHT22;30877;43.706;10.780;2023-04-24T05:41:43;15.90;96.70
45115;DHT22;30877;43.706;10.780;2023-04-24T05:44:11;15.90;96.70
45115;DHT22;30877;43.706;10.780;2023-04-24T05:46:40;15.90;96.70
45115;DHT22;30877;43.706;10.780;2023-04-24T05:49:10;15.80;96.70
45115;DHT22;30877;43.706;10.780;2023-04-24T05:51:38;15.80;96.70
45115;DHT22;30877;43.706;10.780;2023-04-24T05:54:07;15.80;96.70
45115;DHT22;30877;43.706;10.780;2023-04-24T05:56:35;15.80;96.70
45115;DHT22;30877;43.706;10.780;2023-04-24T05:59:05;15.80;96.70
45115;DHT22;30877;43.706;10.780;2023-04-24T06:01:33;15.90;96.70
45115;DHT22;30877;43.706;10.780;2023-04-24T06:04:10;15.90;96.70
45115;DHT22;30877;43.706;10.780;2023-04-24T06:06:41;16.10;96.70
45115;DHT22;30877;43.706;10.780;2023-04-24T06:09:10;16.10;96.70
45115;DHT22;30877;43.706;10.780;2023-04-24T06:11:38;16.30;96.70
45115;DHT22;30877;43.706;10.780;2023-04-24T06:14:09;16.40;96.70
45115;DHT22;30877;43.706;10.780;2023-04-24T06:16:37;16.50;96.70
45115;DHT22;30877;43.706;10.780;2023-04-24T06:19:19;16.70;96.70
45115;DHT22;30877;43.706;10.780;2023-04-24T06:21:47;16.70;96.70
45115;DHT22;30877;43.706;10.780;2023-04-24T06:24:16;16.70;96.70
45115;DHT22;30877;43.706;10.780;2023-04-24T06:26:44;16.70;96.70
45115;DHT22;30877;43.706;10.780;2023-04-24T06:29:12;16.70;96.70
45115;DHT22;30877;43.706;10.780;2023-04-24T06:31:40;16.80;96.70
45115;DHT22;30877;43.706;10.780;2023-04-24T06:34:08;16.80;96.70
45115;DHT22;30877;43.706;10.780;2023-04-24T06:36:37;16.80;96.70
45115;DHT22;30877;43.706;10.780;2023-04-24T06:39:05;16.80;96.70
45115;DHT22;30877;43.706;10.780;2023-04-24T06:41:34;16.80;96.70
45115;DHT22;30877;43.706;10.780;2023-04-24T06:44:02;16.90;96.70
45115;DHT22;30877;43.706;10.780;2023-04-24T06:46:30;17.00;96.70
45115;DHT22;30877;43.706;10.780;2023-04-24T06:48:57;17.10;96.70
45115;DHT22;30877;43.706;10.780;2023-04-24T06:51:26;17.00;96.70
45115;DHT22;30877;43.706;10.780;2023-04-24T06:53:55;17.00;96.70
45115;DHT22;30877;43.706;10.780;2023-04-24T06:56:23;17.10;96.70
45115;DHT22;30877;43.706;10.780;2023-04-24T06:58:51;17.20;96.70
45115;DHT22;30877;43.706;10.780;2023-04-24T07:01:19;17.30;96.70
45115;DHT22;30877;43.706;10.780;2023-04-24T07:03:47;17.30;96.70
45115;DHT22;30877;43.706;10.780;2023-04-24T07:06:16;17.30;96.70
45115;DHT22;30877;43.706;10.780;2023-04-24T07:08:46;17.40;96.70
45115;DHT22;30877;43.706;10.780;2023-04-24T07:11:15;17.50;96.70
45115;DHT22;30877;43.706;10.780;2023-04-24T07:13:43;17.60;96.70
45115;DHT22;30877;43.706;10.780;2023-04-24T07:16:11;17.50;96.70
45115;DHT22;30877;43.706;10.780;2023-04-24T07:18:39;17.20;96.70
45115;DHT22;30877;43.706;10.780;2023-04-24T07:21:07;17.00;96.70
45115;DHT22;30877;43.706;10.780;2023-04-24T07:23:35;16.70;96.70
45115;DHT22;30877;43.706;10.780;2023-04-24T07:26:03;16.50;96.70
45115;DHT22;30877;43.706;10.780;2023-04-24T07:31:23;16.40;96.70
45115;DHT22;30877;43.706;10.780;2023-04-24T07:33:51;16.40;96.70
45115;DHT22;30877;43.706;10.780;2023-04-24T07:36:19;16.30;96.70
45115;DHT22;30877;43.706;10.780;2023-04-24T07:38:47;16.40;96.70
45115;DHT22;30877;43.706;10.780;2023-04-24T07:41:16;16.60;96.70
45115;DHT22;30877;43.706;10.780;2023-04-24T07:43:45;16.60;96.70
45115;DHT22;30877;43.706;10.780;2023-04-24T07:46:13;16.60;96.70
45115;DHT22;30877;43.706;10.780;2023-04-24T07:48:42;16.60;96.70
45115;DHT22;30877;43.706;10.780;2023-04-24T07:51:10;16.50;96.70
45115;DHT22;30877;43.706;10.780;2023-04-24T07:53:40;16.70;96.70
45115;DHT22;30877;43.706;10.780;2023-04-24T07:56:09;16.80;96.70
45115;DHT22;30877;43.706;10.780;2023-04-24T07:58:37;17.00;96.70
45115;DHT22;30877;43.706;10.780;2023-04-24T08:01:07;17.20;96.70
45115;DHT22;30877;43.706;10.780;2023-04-24T08:03:35;17.30;96.70
45115;DHT22;30877;43.706;10.780;2023-04-24T08:06:03;17.30;96.70
45115;DHT22;30877;43.706;10.780;2023-04-24T08:08:31;17.40;96.70
45115;DHT22;30877;43.706;10.780;2023-04-24T08:11:01;17.40;96.70
45115;DHT22;30877;43.706;10.780;2023-04-24T08:13:29;17.60;96.70
45115;DHT22;30877;43.706;10.780;2023-04-24T08:15:57;17.50;96.70
45115;DHT22;30877;43.706;10.780;2023-04-24T08:18:27;17.50;96.70
45115;DHT22;30877;43.706;10.780;2023-04-24T08:20:55;17.50;96.70
45115;DHT22;30877;43.706;10.780;2023-04-24T08:23:29;17.60;96.70
45115;DHT22;30877;43.706;10.780;2023-04-24T08:25:58;17.80;96.70
45115;DHT22;30877;43.706;10.780;2023-04-24T08:28:26;17.80;96.70
45115;DHT22;30877;43.706;10.780;2023-04-24T08:30:54;17.70;96.70
45115;DHT22;30877;43.706;10.780;2023-04-24T08:33:23;17.80;96.70
45115;DHT22;30877;43.706;10.780;2023-04-24T08:35:52;17.80;96.70
45115;DHT22;30877;43.706;10.780;2023-04-24T08:38:20;17.80;96.70
45115;DHT22;30877;43.706;10.780;2023-04-24T08:40:48;18.00;96.70
45115;DHT22;30877;43.706;10.780;2023-04-24T08:43:17;18.30;96.70
45115;DHT22;30877;43.706;10.780;2023-04-24T08:45:46;18.20;96.70
45115;DHT22;30877;43.706;10.780;2023-04-24T08:48:16;18.10;96.70
45115;DHT22;30877;43.706;10.780;2023-04-24T08:50:58;18.00;96.70
45115;DHT22;30877;43.706;10.780;2023-04-24T08:53:27;17.90;96.70
45115;DHT22;30877;43.706;10.780;2023-04-24T08:55:56;17.90;96.70
45115;DHT22;30877;43.706;10.780;2023-04-24T08:58:25;17.90;96.70
45115;DHT22;30877;43.706;10.780;2023-04-24T09:00:55;18.10;96.70
45115;DHT22;30877;43.706;10.780;2023-04-24T09:03:23;18.10;96.70
45115;DHT22;30877;43.706;10.780;2023-04-24T09:05:53;18.20;96.70
45115;DHT22;30877;43.706;10.780;2023-04-24T09:08:25;18.20;96.70
45115;DHT22;30877;43.706;10.780;2023-04-24T09:10:54;18.00;96.70
45115;DHT22;30877;43.706;10.780;2023-04-24T09:13:22;17.80;96.70
45115;DHT22;30877;43.706;10.780;2023-04-24T09:15:50;17.70;96.70
45115;DHT22;30877;43.706;10.780;2023-04-24T09:18:19;17.70;96.70
45115;DHT22;30877;43.706;10.780;2023-04-24T09:21:01;17.60;96.70
45115;DHT22;30877;43.706;10.780;2023-04-24T09:23:31;17.60;96.70
45115;DHT22;30877;43.706;10.780;2023-04-24T09:26:00;17.60;96.70
45115;DHT22;30877;43.706;10.780;2023-04-24T09:28:31;17.80;96.70
45115;DHT22;30877;43.706;10.780;2023-04-24T09:31:07;17.90;96.70
45115;DHT22;30877;43.706;10.780;2023-04-24T09:33:36;18.00;96.70
45115;DHT22;30877;43.706;10.780;2023-04-24T09:36:04;18.10;96.70
45115;DHT22;30877;43.706;10.780;2023-04-24T09:38:36;18.30;96.70
45115;DHT22;30877;43.706;10.780;2023-04-24T09:41:08;18.20;96.70
45115;DHT22;30877;43.706;10.780;2023-04-24T09:43:40;18.10;96.70
45115;DHT22;30877;43.706;10.780;2023-04-24T09:46:08;18.10;96.70
45115;DHT22;30877;43.706;10.780;2023-04-24T09:48:37;18.00;96.70
45115;DHT22;30877;43.706;10.780;2023-04-24T09:51:06;18.00;96.70
45115;DHT22;30877;43.706;10.780;2023-04-24T09:53:40;18.10;96.70
45115;DHT22;30877;43.706;10.780;2023-04-24T09:56:13;18.20;96.70
45115;DHT22;30877;43.706;10.780;2023-04-24T09:58:41;18.10;96.70
45115;DHT22;30877;43.706;10.780;2023-04-24T10:01:09;18.20;96.70
45115;DHT22;30877;43.706;10.780;2023-04-24T10:03:37;18.50;96.70
45115;DHT22;30877;43.706;10.780;2023-04-24T10:06:05;18.40;96.70
45115;DHT22;30877;43.706;10.780;2023-04-24T10:08:37;18.30;96.70
45115;DHT22;30877;43.706;10.780;2023-04-24T10:11:06;18.20;96.70
45115;DHT22;30877;43.706;10.780;2023-04-24T10:13:36;18.30;96.70
45115;DHT22;30877;43.706;10.780;2023-04-24T10:16:06;18.30;96.70
45115;DHT22;30877;43.706;10.780;2023-04-24T10:18:35;18.40;96.70
45115;DHT22;30877;43.706;10.780;2023-04-24T10:21:03;18.50;96.70
45115;DHT22;30877;43.706;10.780;2023-04-24T10:23:31;18.60;96.70
45115;DHT22;30877;43.706;10.780;2023-04-24T10:26:00;18.50;96.70
45115;DHT22;30877;43.706;10.780;2023-04-24T10:28:31;18.70;96.70
45115;DHT22;30877;43.706;10.780;2023-04-24T10:30:59;18.90;96.70
45115;DHT22;30877;43.706;10.780;2023-04-24T10:33:28;19.00;96.70
45115;DHT22;30877;43.706;10.780;2023-04-24T10:35:57;19.10;96.70
45115;DHT22;30877;43.706;10.780;2023-04-24T10:38:26;19.20;96.70
45115;DHT22;30877;43.706;10.780;2023-04-24T10:40:58;19.60;96.70
45115;DHT22;30877;43.706;10.780;2023-04-24T10:43:36;19.60;96.70
45115;DHT22;30877;43.706;10.780;2023-04-24T10:46:04;19.80;96.70
45115;DHT22;30877;43.706;10.780;2023-04-24T10:48:33;19.80;96.70
45115;DHT22;30877;43.706;10.780;2023-04-24T10:51:01;19.80;96.70
45115;DHT22;30877;43.706;10.780;2023-04-24T10:53:29;19.80;96.70
45115;DHT22;30877;43.706;10.780;2023-04-24T10:55:59;19.70;96.70
45115;DHT22;30877;43.706;10.780;2023-04-24T10:58:39;19.80;96.70
45115;DHT22;30877;43.706;10.780;2023-04-24T11:01:08;19.70;96.70
45115;DHT22;30877;43.706;10.780;2023-04-24T11:03:36;19.80;96.70
45115;DHT22;30877;43.706;10.780;2023-04-24T11:06:05;19.90;96.70
45115;DHT22;30877;43.706;10.780;2023-04-24T11:08:38;19.90;96.70
45115;DHT22;30877;43.706;10.780;2023-04-24T11:11:11;20.00;96.70
45115;DHT22;30877;43.706;10.780;2023-04-24T11:14:03;20.00;96.70
45115;DHT22;30877;43.706;10.780;2023-04-24T11:16:33;20.00;96.70
45115;DHT22;30877;43.706;10.780;2023-04-24T11:19:03;19.90;96.70
45115;DHT22;30877;43.706;10.780;2023-04-24T11:21:32;20.00;96.70
45115;DHT22;30877;43.706;10.780;2023-04-24T11:24:24;19.80;96.70
45115;DHT22;30877;43.706;10.780;2023-04-24T11:26:53;19.80;96.70
45115;DHT22;30877;43.706;10.780;2023-04-24T11:29:38;20.00;96.70
45115;DHT22;30877;43.706;10.780;2023-04-24T11:32:29;19.80;96.70
45115;DHT22;30877;43.706;10.780;2023-04-24T11:35:04;20.00;96.70
45115;DHT22;30877;43.706;10.780;2023-04-24T11:37:36;19.90;96.70
45115;DHT22;30877;43.706;10.780;2023-04-24T11:40:06;20.10;96.70
45115;DHT22;30877;43.706;10.780;2023-04-24T11:42:35;20.10;96.70
45115;DHT22;30877;43.706;10.780;2023-04-24T11:45:09;20.20;96.70
45115;DHT22;30877;43.706;10.780;2023-04-24T11:47:40;20.10;96.70
45115;DHT22;30877;43.706;10.780;2023-04-24T11:50:31;20.00;96.70
45115;DHT22;30877;43.706;10.780;2023-04-24T11:52:59;20.30;96.70
45115;DHT22;30877;43.706;10.780;2023-04-24T11:55:29;20.30;96.70
45115;DHT22;30877;43.706;10.780;2023-04-24T11:57:58;20.40;96.70
45115;DHT22;30877;43.706;10.780;2023-04-24T12:00:29;20.20;96.70
45115;DHT22;30877;43.706;10.780;2023-04-24T12:03:05;20.30;96.70
45115;DHT22;30877;43.706;10.780;2023-04-24T12:05:35;20.30;96.70
45115;DHT22;30877;43.706;10.780;2023-04-24T12:08:04;20.30;96.70
45115;DHT22;30877;43.706;10.780;2023-04-24T12:10:33;20.40;96.70
45115;DHT22;30877;43.706;10.780;2023-04-24T12:13:03;20.40;96.70
45115;DHT22;30877;43.706;10.780;2023-04-24T12:15:33;20.30;96.70
45115;DHT22;30877;43.706;10.780;2023-04-24T12:18:01;20.30;96.70
45115;DHT22;30877;43.706;10.780;2023-04-24T12:20:30;20.40;96.70
45115;DHT22;30877;43.706;10.780;2023-04-24T12:23:00;20.50;96.70
45115;DHT22;30877;43.706;10.780;2023-04-24T12:25:29;20.50;96.70
45115;DHT22;30877;43.706;10.780;2023-04-24T12:28:09;20.70;96.70
45115;DHT22;30877;43.706;10.780;2023-04-24T12:30:43;20.80;96.70
45115;DHT22;30877;43.706;10.780;2023-04-24T12:33:18;20.70;96.70
45115;DHT22;30877;43.706;10.780;2023-04-24T12:35:48;20.70;96.70
45115;DHT22;30877;43.706;10.780;2023-04-24T12:38:21;20.70;96.70
45115;DHT22;30877;43.706;10.780;2023-04-24T12:41:01;20.70;96.70
45115;DHT22;30877;43.706;10.780;2023-04-24T12:43:30;20.80;96.70
45115;DHT22;30877;43.706;10.780;2023-04-24T12:49:08;20.70;96.70
45115;DHT22;30877;43.706;10.780;2023-04-24T12:51:37;20.80;96.70
45115;DHT22;30877;43.706;10.780;2023-04-24T12:54:05;20.70;96.70
45115;DHT22;30877;43.706;10.780;2023-04-24T12:56:34;20.80;96.70
45115;DHT22;30877;43.706;10.780;2023-04-24T12:59:07;21.10;96.70
45115;DHT22;30877;43.706;10.780;2023-04-24T13:01:35;21.10;96.70
45115;DHT22;30877;43.706;10.780;2023-04-24T13:04:05;20.90;96.70
45115;DHT22;30877;43.706;10.780;2023-04-24T13:06:35;20.70;96.70
45115;DHT22;30877;43.706;10.780;2023-04-24T13:09:04;21.00;96.70
45115;DHT22;30877;43.706;10.780;2023-04-24T13:11:33;21.00;96.70
45115;DHT22;30877;43.706;10.780;2023-04-24T13:14:01;20.90;96.70
45115;DHT22;30877;43.706;10.780;2023-04-24T13:16:30;20.90;96.70
45115;DHT22;30877;43.706;10.780;2023-04-24T13:18:58;20.90;96.70
45115;DHT22;30877;43.706;10.780;2023-04-24T13:21:27;20.90;96.70
45115;DHT22;30877;43.706;10.780;2023-04-24T13:23:57;20.90;96.70
45115;DHT22;30877;43.706;10.780;2023-04-24T13:26:25;21.00;96.70
45115;DHT22;30877;43.706;10.780;2023-04-24T13:28:56;21.30;96.70
45115;DHT22;30877;43.706;10.780;2023-04-24T13:31:25;21.40;96.70
45115;DHT22;30877;43.706;10.780;2023-04-24T13:33:56;21.30;96.70
45115;DHT22;30877;43.706;10.780;2023-04-24T13:36:24;21.40;96.70
45115;DHT22;30877;43.706;10.780;2023-04-24T13:38:53;21.50;96.70
45115;DHT22;30877;43.706;10.780;2023-04-24T13:41:23;21.50;96.70
45115;DHT22;30877;43.706;10.780;2023-04-24T13:43:52;21.50;96.70
45115;DHT22;30877;43.706;10.780;2023-04-24T13:46:20;21.70;96.70
45115;DHT22;30877;43.706;10.780;2023-04-24T13:48:49;21.80;96.70
45115;DHT22;30877;43.706;10.780;2023-04-24T13:51:17;22.00;96.70
45115;DHT22;30877;43.706;10.780;2023-04-24T13:53:45;22.30;96.70
45115;DHT22;30877;43.706;10.780;2023-04-24T13:56:14;22.40;96.70
45115;DHT22;30877;43.706;10.780;2023-04-24T13:58:44;22.50;96.70
45115;DHT22;30877;43.706;10.780;2023-04-24T14:01:13;22.80;96.70
45115;DHT22;30877;43.706;10.780;2023-04-24T14:03:41;22.80;96.70
45115;DHT22;30877;43.706;10.780;2023-04-24T14:06:12;23.00;96.70
45115;DHT22;30877;43.706;10.780;2023-04-24T14:08:40;23.10;96.70
45115;DHT22;30877;43.706;10.780;2023-04-24T14:11:09;23.40;96.70
45115;DHT22;30877;43.706;10.780;2023-04-24T14:13:37;23.80;96.70
45115;DHT22;30877;43.706;10.780;2023-04-24T14:16:08;24.10;96.70
45115;DHT22;30877;43.706;10.780;2023-04-24T14:18:37;24.20;96.70
45115;DHT22;30877;43.706;10.780;2023-04-24T14:21:06;24.20;96.70
45115;DHT22;30877;43.706;10.780;2023-04-24T14:23:34;24.60;96.70
45115;DHT22;30877;43.706;10.780;2023-04-24T14:26:03;24.50;96.70
45115;DHT22;30877;43.706;10.780;2023-04-24T14:28:32;24.50;96.70
45115;DHT22;30877;43.706;10.780;2023-04-24T14:31:00;24.70;96.70
45115;DHT22;30877;43.706;10.780;2023-04-24T14:33:53;24.90;96.70
45115;DHT22;30877;43.706;10.780;2023-04-24T14:36:21;25.00;96.70
45115;DHT22;30877;43.706;10.780;2023-04-24T14:38:50;25.20;96.70
45115;DHT22;30877;43.706;10.780;2023-04-24T14:41:19;23.90;96.70
45115;DHT22;30877;43.706;10.780;2023-04-24T14:43:47;24.50;96.70
45115;DHT22;30877;43.706;10.780;2023-04-24T14:46:16;23.90;96.70
45115;DHT22;30877;43.706;10.780;2023-04-24T14:48:44;23.20;96.70
45115;DHT22;30877;43.706;10.780;2023-04-24T14:51:24;23.80;96.70
45115;DHT22;30877;43.706;10.780;2023-04-24T14:53:53;24.40;96.70
45115;DHT22;30877;43.706;10.780;2023-04-24T14:56:22;24.60;96.70
45115;DHT22;30877;43.706;10.780;2023-04-24T14:58:51;24.90;96.70
45115;DHT22;30877;43.706;10.780;2023-04-24T15:01:19;25.40;96.70
45115;DHT22;30877;43.706;10.780;2023-04-24T15:03:48;25.30;96.70
45115;DHT22;30877;43.706;10.780;2023-04-24T15:06:17;25.30;96.70
45115;DHT22;30877;43.706;10.780;2023-04-24T15:08:47;25.20;96.70
45115;DHT22;30877;43.706;10.780;2023-04-24T15:11:17;25.60;96.70
45115;DHT22;30877;43.706;10.780;2023-04-24T15:13:45;26.40;96.70
45115;DHT22;30877;43.706;10.780;2023-04-24T15:16:14;26.20;96.70
45115;DHT22;30877;43.706;10.780;2023-04-24T15:18:43;26.80;96.70
45115;DHT22;30877;43.706;10.780;2023-04-24T15:21:12;26.60;96.70
45115;DHT22;30877;43.706;10.780;2023-04-24T15:23:41;25.60;96.70
45115;DHT22;30877;43.706;10.780;2023-04-24T15:26:11;25.50;96.70
45115;DHT22;30877;43.706;10.780;2023-04-24T15:28:39;25.90;96.70
45115;DHT22;30877;43.706;10.780;2023-04-24T15:31:08;26.00;96.70
45115;DHT22;30877;43.706;10.780;2023-04-24T15:33:36;26.20;96.70
45115;DHT22;30877;43.706;10.780;2023-04-24T15:36:05;26.20;96.70
45115;DHT22;30877;43.706;10.780;2023-04-24T15:38:33;26.40;96.70